Time;durP1;ratioP1;P1;durP2;ratioP2;P2;SDS_P1;SDS_P2;PMS_P1;PMS_P2;Temp;Humidity;BMP_temperature;BMP_pressure;BME280_temperature;BME280_humidity;BME280_pressure;Samples;Min_cycle;Max_cycle;Signal;HPM_P1;HPM_P2
2021/06/28 00:00:25;;;;;;;43.97;33.25;;;;;;;22.57;74.89;99043.69;4938296;29;20063;-77
2021/06/28 00:02:51;;;;;;;41.88;33.55;;;;;;;22.60;74.61;99048.75;4905862;29;20130;-76
2021/06/28 00:05:18;;;;;;;40.08;31.83;;;;;;;22.58;74.47;99039.94;4938488;29;20044;-76
2021/06/28 00:07:44;;;;;;;35.92;32.13;;;;;;;22.72;74.28;99042.47;4937044;29;20059;-77
2021/06/28 00:10:12;;;;;;;39.03;32.08;;;;;;;22.83;73.47;99038.31;4938118;29;20082;-76
2021/06/28 00:12:38;;;;;;;36.80;32.83;;;;;;;22.87;73.60;99039.56;4938096;29;20039;-76
2021/06/28 00:15:06;;;;;;;36.22;32.38;;;;;;;22.91;73.54;99035.41;4937965;29;20103;-75
2021/06/28 00:17:32;;;;;;;40.45;32.25;;;;;;;22.93;73.45;99032.44;4936772;29;20487;-77
2021/06/28 00:19:58;;;;;;;36.03;32.03;;;;;;;23.03;73.05;99047.34;4920902;29;20054;-77
2021/06/28 00:22:23;;;;;;;49.90;33.13;;;;;;;22.93;73.29;99046.91;4937949;29;20099;-76
2021/06/28 00:24:49;;;;;;;35.35;30.98;;;;;;;23.01;73.32;99048.59;4937938;29;20134;-76
2021/06/28 00:27:15;;;;;;;36.10;29.65;;;;;;;22.95;73.32;99054.88;4937670;29;20075;-77
2021/06/28 00:29:41;;;;;;;36.90;31.17;;;;;;;22.89;73.46;99059.25;4936535;29;20130;-76
2021/06/28 00:32:07;;;;;;;40.15;31.30;;;;;;;22.93;73.30;99063.25;4920997;29;20122;-76
2021/06/28 00:34:33;;;;;;;37.97;31.50;;;;;;;23.02;73.07;99061.19;4936592;29;20066;-77
2021/06/28 00:36:59;;;;;;;42.80;35.63;;;;;;;23.01;73.17;99073.13;4937584;29;20061;-77
2021/06/28 00:39:25;;;;;;;49.95;38.08;;;;;;;22.92;73.35;99077.94;4937604;29;20039;-77
2021/06/28 00:41:50;;;;;;;40.13;35.55;;;;;;;22.92;73.60;99072.50;4937186;29;20088;-76
2021/06/28 00:44:17;;;;;;;41.83;34.30;;;;;;;22.89;73.46;99070.16;4937723;29;20066;-76
2021/06/28 00:46:43;;;;;;;43.30;34.33;;;;;;;22.80;73.91;99060.50;4904870;29;20134;-77
2021/06/28 00:49:09;;;;;;;40.25;34.08;;;;;;;22.86;74.00;99067.84;4937607;29;20154;-76
2021/06/28 00:51:35;;;;;;;38.78;33.60;;;;;;;22.90;73.72;99066.38;4937392;29;20134;-77
2021/06/28 00:54:00;;;;;;;35.42;30.65;;;;;;;22.93;73.70;99068.72;4937270;29;20525;-77
2021/06/28 00:56:26;;;;;;;58.42;32.53;;;;;;;22.92;73.69;99075.22;4937181;29;20491;-78
2021/06/28 00:58:52;;;;;;;48.13;31.92;;;;;;;22.97;73.55;99078.16;4936539;29;20047;-77
2021/06/28 01:01:18;;;;;;;41.58;32.17;;;;;;;23.02;73.49;99070.19;4936139;29;20481;-77
2021/06/28 01:03:44;;;;;;;39.83;30.52;;;;;;;23.22;72.95;99082.97;4936968;29;20126;-77
2021/06/28 01:06:14;;;;;;;48.60;29.77;;;;;;;23.27;72.56;99073.09;4935819;29;20048;-77
2021/06/28 01:08:40;;;;;;;53.92;31.30;;;;;;;23.34;72.21;99073.09;4951797;29;20054;-77
2021/06/28 01:11:07;;;;;;;46.53;31.02;;;;;;;23.34;72.21;99077.72;4904104;29;20483;-77
2021/06/28 01:13:36;;;;;;;45.72;31.85;;;;;;;23.29;72.56;99082.97;4936827;29;20628;-77
2021/06/28 01:16:03;;;;;;;52.92;32.67;;;;;;;23.22;72.60;99089.28;4904409;29;20050;-78
2021/06/28 01:18:30;;;;;;;51.45;31.63;;;;;;;23.26;72.53;99093.25;4936835;29;20090;-77
2021/06/28 01:20:56;;;;;;;41.28;31.35;;;;;;;23.39;72.40;99103.28;4904031;29;20535;-77
2021/06/28 01:23:24;;;;;;;35.80;31.40;;;;;;;23.55;71.43;99106.66;4936742;29;20039;-78
2021/06/28 01:25:52;;;;;;;43.90;37.42;;;;;;;23.47;71.75;99099.53;4904373;29;20134;-77
2021/06/28 01:28:18;;;;;;;59.58;49.17;;;;;;;23.38;71.49;99096.16;4935775;29;20055;-76
2021/06/28 01:30:44;;;;;;;70.22;53.28;;;;;;;23.40;71.45;99099.53;4936550;29;20078;-76
2021/06/28 01:33:10;;;;;;;37.72;33.38;;;;;;;23.34;70.89;99091.34;4935125;29;20054;-76
2021/06/28 01:35:40;;;;;;;31.88;26.75;;;;;;;23.01;71.71;99095.75;4936063;29;20502;-76
2021/06/28 01:38:07;;;;;;;31.40;24.40;;;;;;;22.84;72.33;99096.38;4934817;29;20502;-78
2021/06/28 01:40:32;;;;;;;43.95;22.88;;;;;;;22.85;72.50;99096.16;4919509;29;20048;-77
2021/06/28 01:42:59;;;;;;;26.75;23.45;;;;;;;22.92;72.25;99091.56;4903905;29;20051;-77
2021/06/28 01:45:24;;;;;;;32.65;23.95;;;;;;;22.89;72.28;99102.84;4919210;29;20186;-76
2021/06/28 01:47:53;;;;;;;31.17;23.65;;;;;;;23.03;71.93;99099.13;4935033;29;20138;-77
2021/06/28 01:50:19;;;;;;;30.73;23.45;;;;;;;23.03;71.62;99104.59;4935062;29;20046;-77
2021/06/28 01:52:45;;;;;;;35.38;21.75;;;;;;;23.08;71.66;99100.38;4934695;29;20047;-76
2021/06/28 01:55:14;;;;;;;27.42;22.85;;;;;;;23.12;71.42;99101.63;4935931;29;20050;-77
2021/06/28 01:57:44;;;;;;;26.25;23.15;;;;;;;23.27;71.10;99105.81;4933879;29;20521;-77
2021/06/28 02:00:11;;;;;;;24.10;20.70;;;;;;;23.14;70.86;99094.09;4902842;29;20086;-76
2021/06/28 02:02:37;;;;;;;24.20;20.10;;;;;;;23.14;71.10;99107.75;4887193;29;20075;-76
2021/06/28 02:05:04;;;;;;;23.67;19.55;;;;;;;23.14;71.32;99110.47;4934156;29;20086;-77
2021/06/28 02:07:31;;;;;;;22.05;17.52;;;;;;;23.20;70.94;99109.59;4935036;29;20526;-77
2021/06/28 02:09:56;;;;;;;24.17;19.25;;;;;;;23.20;71.24;99106.88;4935620;29;20101;-76
2021/06/28 02:12:24;;;;;;;26.08;18.58;;;;;;;23.26;71.05;99111.50;4934705;29;20047;-78
2021/06/28 02:14:51;;;;;;;28.67;19.50;;;;;;;23.31;70.52;99099.97;4919113;29;20494;-77
2021/06/28 02:17:18;;;;;;;26.73;22.42;;;;;;;23.26;70.78;99109.63;4918783;29;20043;-76
2021/06/28 02:19:47;;;;;;;32.63;26.30;;;;;;;23.27;70.97;99116.72;4935236;29;20534;-76
2021/06/28 02:22:13;;;;;;;36.05;28.58;;;;;;;23.20;71.31;99112.34;4935543;29;20051;-77
2021/06/28 02:24:39;;;;;;;37.30;32.50;;;;;;;23.23;71.63;99111.91;4935532;29;20122;-76
2021/06/28 02:27:05;;;;;;;46.20;37.63;;;;;;;23.27;71.48;99110.44;4918549;29;20066;-76
2021/06/28 02:29:31;;;;;;;52.65;41.38;;;;;;;23.35;71.30;99115.69;4902873;29;20039;-76
2021/06/28 02:31:56;;;;;;;52.83;43.47;;;;;;;23.26;71.85;99116.97;4935423;29;20051;-77
2021/06/28 02:34:22;;;;;;;55.33;41.70;;;;;;;23.27;72.25;99119.47;4933998;29;20463;-77
2021/06/28 02:36:48;;;;;;;47.85;40.53;;;;;;;23.32;72.14;99113.41;4918287;29;20048;-77
2021/06/28 02:39:14;;;;;;;47.25;39.67;;;;;;;23.58;71.50;99120.69;4934891;29;20134;-78
2021/06/28 02:41:43;;;;;;;45.20;36.90;;;;;;;23.80;70.72;99115.84;4903190;29;20036;-77
2021/06/28 02:44:29;;;;;;;42.45;33.80;;;;;;;23.91;70.30;99117.94;4920460;29;20061;-76
2021/06/28 02:46:55;;;;;;;44.65;31.35;;;;;;;23.92;70.58;99114.16;4934664;29;20058;-77
2021/06/28 02:49:20;;;;;;;45.35;32.65;;;;;;;23.96;70.39;99114.56;4902634;29;20456;-77
2021/06/28 02:51:46;;;;;;;49.00;31.70;;;;;;;24.24;69.74;99111.50;4935151;29;20452;-76
2021/06/28 02:54:12;;;;;;;39.25;30.67;;;;;;;24.36;69.18;99115.22;4935295;29;20051;-77
2021/06/28 02:56:38;;;;;;;39.33;31.10;;;;;;;24.54;68.93;99121.91;4933545;29;20051;-77
2021/06/28 02:59:04;;;;;;;40.70;29.35;;;;;;;24.71;68.68;99125.78;4935329;29;20044;-78
2021/06/28 03:01:41;;;;;;;38.40;30.55;;;;;;;24.80;68.03;99121.75;5101889;27;1495189;-76
2021/06/28 03:04:19;;;;;;;38.53;32.58;;;;;;;24.66;68.04;99120.97;5110526;27;20381;-77
2021/06/28 03:06:57;;;;;;;48.78;33.38;;;;;;;24.73;68.25;99126.41;5110784;27;20743;-78
2021/06/28 03:09:36;;;;;;;50.80;37.60;;;;;;;24.94;67.63;99134.28;5110390;27;20387;-76
2021/06/28 03:12:14;;;;;;;49.90;42.88;;;;;;;25.12;67.23;99124.50;5070377;28;20391;-77
2021/06/28 03:14:53;;;;;;;52.90;44.20;;;;;;;25.16;67.20;99132.06;5151814;27;20131;-77
2021/06/28 03:17:30;;;;;;;45.58;39.47;;;;;;;25.12;66.70;99144.47;5090175;28;20382;-77
2021/06/28 03:20:11;;;;;;;44.35;36.35;;;;;;;25.05;66.99;99148.28;5110701;27;20885;-78
2021/06/28 03:22:50;;;;;;;39.05;28.42;;;;;;;25.15;66.74;99156.88;5110604;27;20380;-78
2021/06/28 03:25:28;;;;;;;28.77;21.70;;;;;;;25.13;66.23;99153.53;5069761;28;20387;-77
2021/06/28 03:28:06;;;;;;;27.58;20.77;;;;;;;25.08;66.23;99147.84;5110247;27;20376;-76
2021/06/28 03:30:44;;;;;;;23.80;20.25;;;;;;;25.24;66.34;99141.88;5070098;27;20387;-77
2021/06/28 03:33:22;;;;;;;28.77;19.40;;;;;;;25.30;65.85;99145.59;5090359;27;20382;-75
2021/06/28 03:36:02;;;;;;;21.13;18.60;;;;;;;25.34;65.48;99133.16;5110254;27;20904;-77
2021/06/28 03:38:40;;;;;;;21.92;18.80;;;;;;;25.46;65.42;99125.88;5069946;28;20379;-77
2021/06/28 03:41:19;;;;;;;22.33;18.85;;;;;;;25.60;65.32;99119.22;5110625;27;20385;-76
2021/06/28 03:43:57;;;;;;;20.25;18.15;;;;;;;25.56;65.17;99128.13;5110075;27;20383;-77
2021/06/28 03:46:35;;;;;;;25.98;18.23;;;;;;;25.60;65.37;99137.56;5110464;27;20376;-76
2021/06/28 03:49:13;;;;;;;25.70;21.17;;;;;;;25.71;64.53;99130.50;5151589;27;20389;-76
2021/06/28 03:51:51;;;;;;;31.85;26.65;;;;;;;25.52;65.17;99125.00;5070126;28;20896;-77
2021/06/28 03:54:30;;;;;;;32.40;26.80;;;;;;;25.49;65.30;99133.66;5110661;27;20380;-77
2021/06/28 03:57:08;;;;;;;35.45;27.20;;;;;;;25.54;64.97;99132.97;5110393;27;20403;-77
2021/06/28 03:59:46;;;;;;;29.85;23.48;;;;;;;25.65;65.21;99126.75;5111012;27;20380;-78
2021/06/28 04:02:24;;;;;;;29.45;22.00;;;;;;;26.07;64.33;99124.25;5110710;27;20692;-77
2021/06/28 04:05:05;;;;;;;29.08;21.25;;;;;;;26.31;63.56;99126.03;5110429;27;20391;-77
2021/06/28 04:07:42;;;;;;;22.00;18.25;;;;;;;26.24;62.39;99122.56;5110440;27;20376;-76
2021/06/28 04:10:22;;;;;;;19.52;17.55;;;;;;;26.16;62.51;99117.38;5110857;27;20751;-77
2021/06/28 04:13:00;;;;;;;26.52;19.08;;;;;;;26.27;62.06;99124.84;5110505;27;20376;-78
2021/06/28 04:15:38;;;;;;;21.70;18.52;;;;;;;26.63;61.91;99121.25;5070154;28;20375;-78
2021/06/28 04:18:17;;;;;;;32.40;20.85;;;;;;;27.00;61.07;99123.00;5110203;27;20384;-79
2021/06/28 04:20:55;;;;;;;31.48;22.65;;;;;;;26.87;60.03;99124.88;5070082;28;20391;-77
2021/06/28 04:23:33;;;;;;;32.15;23.02;;;;;;;26.75;60.47;99126.75;5110571;27;20387;-77
2021/06/28 04:26:12;;;;;;;30.63;22.65;;;;;;;26.76;60.33;99120.19;5172032;27;19929;-78
2021/06/28 04:28:50;;;;;;;34.85;24.98;;;;;;;26.77;60.12;99127.34;5110383;27;20380;-77
2021/06/28 04:31:28;;;;;;;37.13;25.05;;;;;;;26.90;60.09;99111.78;5110616;27;20376;-77
2021/06/28 04:34:06;;;;;;;33.00;24.70;;;;;;;27.10;59.93;99117.78;5110357;27;20380;-77
2021/06/28 04:36:45;;;;;;;32.67;25.63;;;;;;;27.07;59.59;99121.00;5130769;27;20184;-77
2021/06/28 04:39:23;;;;;;;35.80;25.05;;;;;;;27.31;59.72;99116.44;5130682;27;20128;-78
2021/06/28 04:42:00;;;;;;;44.45;27.08;;;;;;;27.44;59.43;99120.84;5110439;27;20391;-78
2021/06/28 04:44:39;;;;;;;50.72;28.20;;;;;;;27.59;59.35;99112.97;5110492;27;20396;-77
2021/06/28 04:47:17;;;;;;;45.00;29.15;;;;;;;27.87;58.62;99111.41;5110158;27;20882;-78
2021/06/28 04:50:01;;;;;;;56.75;30.60;;;;;;;28.12;58.06;99111.97;5110451;27;20870;-77
2021/06/28 04:52:40;;;;;;;59.03;29.13;;;;;;;28.22;57.12;99103.13;5069827;28;20371;-77
2021/06/28 04:55:19;;;;;;;59.60;31.55;;;;;;;28.16;56.17;99102.16;5130524;27;20128;-77
2021/06/28 04:57:57;;;;;;;55.97;30.35;;;;;;;28.32;56.65;99106.91;5110414;27;20124;-77
2021/06/28 05:00:34;;;;;;;76.20;32.35;;;;;;;28.37;55.40;99103.47;5110209;27;20384;-78
2021/06/28 05:03:13;;;;;;;77.60;30.70;;;;;;;28.52;55.12;99105.69;5110248;27;20388;-78
2021/06/28 05:05:51;;;;;;;100.30;32.53;;;;;;;28.85;55.00;99101.31;5172162;27;20130;-78
2021/06/28 05:08:29;;;;;;;129.43;36.30;;;;;;;29.16;54.55;99094.47;5109865;27;20727;-77
2021/06/28 05:11:08;;;;;;;98.30;33.47;;;;;;;29.50;53.95;99106.31;5069776;28;20730;-77
2021/06/28 05:13:46;;;;;;;158.30;41.55;;;;;;;29.61;52.15;99097.13;5110271;27;20391;-77
2021/06/28 05:16:24;;;;;;;164.35;40.08;;;;;;;29.38;53.09;99100.06;5110289;27;20376;-78
2021/06/28 05:19:02;;;;;;;161.52;40.67;;;;;;;29.71;52.88;99096.44;5110820;27;20379;-76
2021/06/28 05:21:40;;;;;;;134.60;37.35;;;;;;;29.97;52.44;99095.69;5110716;27;20391;-77
2021/06/28 05:24:18;;;;;;;81.20;31.42;;;;;;;30.26;52.07;99091.97;5069933;28;20893;-77
2021/06/28 05:26:56;;;;;;;57.47;23.40;;;;;;;30.47;49.50;99099.41;5110492;27;20384;-78
2021/06/28 05:29:35;;;;;;;66.95;27.50;;;;;;;30.62;49.11;99088.53;5070184;27;20387;-79
2021/06/28 05:32:13;;;;;;;56.85;26.20;;;;;;;30.65;49.25;99085.22;5110768;27;20384;-77
2021/06/28 05:34:52;;;;;;;52.15;24.42;;;;;;;30.55;48.54;99090.66;5090257;28;20377;-78
2021/06/28 05:37:28;;;;;;;45.97;22.52;;;;;;;30.63;48.98;99087.41;5105157;27;1423852;-79
2021/06/28 05:40:07;;;;;;;38.47;23.52;;;;;;;30.88;48.80;99094.31;5131090;27;20185;-76
2021/06/28 05:42:46;;;;;;;45.58;21.85;;;;;;;31.20;48.44;99095.16;5111192;27;20380;-76
2021/06/28 05:45:24;;;;;;;35.20;18.40;;;;;;;31.40;46.68;99091.75;5110322;27;20886;-78
2021/06/28 05:48:02;;;;;;;27.35;18.35;;;;;;;31.28;46.19;99104.88;5110412;27;20380;-76
2021/06/28 05:50:40;;;;;;;26.13;17.98;;;;;;;31.26;46.72;99095.22;5110511;27;20376;-77
2021/06/28 05:53:19;;;;;;;26.23;17.77;;;;;;;31.43;47.05;99102.25;5110328;27;20388;-78
2021/06/28 05:55:58;;;;;;;21.38;15.38;;;;;;;31.45;46.76;99104.78;5103403;27;20750;-82
2021/06/28 05:58:48;;;;;;;21.25;16.95;;;;;;;31.49;45.95;99108.66;5110690;27;20387;-90
2021/06/28 06:01:26;;;;;;;25.02;15.70;;;;;;;31.36;46.13;99112.69;5110621;27;20388;-85
2021/06/28 06:04:07;;;;;;;18.77;16.77;;;;;;;31.36;45.89;99118.22;5110480;27;20379;-88
2021/06/28 06:06:45;;;;;;;20.40;15.35;;;;;;;31.47;45.68;99110.84;5110954;27;20384;-88
2021/06/28 06:09:22;;;;;;;17.88;14.30;;;;;;;31.77;44.91;99109.41;5110743;27;20407;-86
2021/06/28 06:12:02;;;;;;;22.25;14.13;;;;;;;31.77;44.40;99101.94;5172581;27;19942;-86
2021/06/28 06:14:39;;;;;;;28.42;13.95;;;;;;;31.96;44.46;99115.34;5111499;27;20388;-89
2021/06/28 06:17:18;;;;;;;23.92;13.88;;;;;;;32.17;43.75;99111.59;5173192;27;19923;-84
2021/06/28 06:19:57;;;;;;;21.60;13.43;;;;;;;32.16;43.69;99113.53;5173220;27;20130;-86
2021/06/28 06:22:44;;;;;;;24.95;13.52;;;;;;;32.15;43.63;99114.59;5090489;28;20380;-86
2021/06/28 06:25:22;;;;;;;18.65;12.63;;;;;;;32.09;43.44;99107.41;5130993;27;20136;-88
2021/06/28 06:28:03;;;;;;;21.30;13.30;;;;;;;31.75;43.49;99108.84;5153056;27;20183;-84
2021/06/28 06:30:42;;;;;;;18.70;13.05;;;;;;;31.45;44.16;99115.81;5115437;27;20132;-89
2021/06/28 06:33:21;;;;;;;23.95;15.18;;;;;;;30.99;44.74;99109.88;5114708;27;20384;-88
2021/06/28 06:35:59;;;;;;;23.73;12.70;;;;;;;31.04;44.78;99112.69;5111413;27;20376;-78
2021/06/28 06:38:37;;;;;;;20.17;12.90;;;;;;;31.42;44.49;99110.81;5131677;27;20394;-86
2021/06/28 06:41:16;;;;;;;27.00;13.30;;;;;;;31.57;43.73;99096.28;5110472;27;20886;-80
2021/06/28 06:43:54;;;;;;;19.15;12.98;;;;;;;31.90;43.43;99114.50;5110539;27;20388;-78
2021/06/28 06:46:34;;;;;;;21.70;12.75;;;;;;;32.29;43.03;99114.13;5110642;27;20721;-79
2021/06/28 06:49:12;;;;;;;17.15;12.13;;;;;;;32.50;42.23;99109.50;5110666;27;20376;-82
2021/06/28 06:51:52;;;;;;;22.67;12.73;;;;;;;32.62;41.57;99119.25;5112955;27;20387;-81
2021/06/28 06:54:30;;;;;;;17.50;12.45;;;;;;;32.83;41.40;99113.75;5130925;27;20136;-81
2021/06/28 06:57:10;;;;;;;32.72;13.95;;;;;;;33.00;41.14;99113.53;5110890;27;20388;-80
2021/06/28 06:59:49;;;;;;;16.52;12.93;;;;;;;33.05;40.96;99117.13;5130948;27;20188;-78
2021/06/28 07:02:28;;;;;;;19.23;12.77;;;;;;;33.01;41.31;99115.19;5172494;27;20167;-81
2021/06/28 07:05:07;;;;;;;22.50;12.75;;;;;;;33.37;40.61;99104.97;5071094;28;20399;-82
2021/06/28 07:07:46;;;;;;;16.05;11.70;;;;;;;33.77;39.71;99111.56;5070181;28;20403;-80
2021/06/28 07:10:24;;;;;;;21.70;12.90;;;;;;;34.01;38.41;99107.09;5172574;27;20174;-83
2021/06/28 07:13:03;;;;;;;24.20;12.43;;;;;;;33.41;39.31;99108.81;5110164;27;20380;-82
2021/06/28 07:15:41;;;;;;;19.13;12.30;;;;;;;32.89;39.84;99112.66;5090474;28;20118;-86
2021/06/28 07:18:18;;;;;;;18.88;11.30;;;;;;;32.94;40.12;99098.84;5110957;27;20732;-81
2021/06/28 07:20:56;;;;;;;19.05;12.05;;;;;;;33.23;39.05;99096.38;5110414;27;20372;-81
2021/06/28 07:23:36;;;;;;;16.45;11.73;;;;;;;33.18;39.29;99090.00;5173067;27;20395;-85
2021/06/28 07:26:15;;;;;;;19.95;11.25;;;;;;;33.65;39.37;99083.31;5153377;27;20135;-84
2021/06/28 07:28:52;;;;;;;24.77;13.95;;;;;;;33.57;38.98;99082.78;5081774;27;1414311;-80
2021/06/28 07:31:33;;;;;;;31.90;13.40;;;;;;;33.50;38.52;99078.63;5111499;27;20739;-85
2021/06/28 07:34:12;;;;;;;36.85;16.08;;;;;;;33.64;39.10;99076.13;5072839;28;20386;-82
2021/06/28 07:36:50;;;;;;;57.05;18.85;;;;;;;33.96;39.58;99071.03;5090675;28;20118;-77
2021/06/28 07:39:27;;;;;;;55.13;21.00;;;;;;;34.16;39.05;99077.66;5110726;27;20384;-86
2021/06/28 07:42:06;;;;;;;62.60;21.65;;;;;;;34.25;38.58;99078.72;5132058;27;20375;-77
2021/06/28 07:44:44;;;;;;;63.72;21.42;;;;;;;34.55;38.44;99075.81;5150094;27;19923;-80
2021/06/28 07:47:25;;;;;;;58.95;19.73;;;;;;;34.93;37.92;99078.03;5172817;27;20118;-82
2021/06/28 07:50:04;;;;;;;50.13;18.02;;;;;;;34.99;37.15;99083.31;5152690;27;20385;-83
2021/06/28 07:52:41;;;;;;;43.72;17.88;;;;;;;34.87;37.42;99082.81;5110925;27;20746;-81
2021/06/28 07:55:20;;;;;;;39.03;16.77;;;;;;;34.85;37.35;99082.28;5110271;27;20921;-81
2021/06/28 07:57:58;;;;;;;43.28;17.05;;;;;;;34.70;37.01;99079.59;5104493;27;21215;-83
2021/06/28 08:00:37;;;;;;;37.25;16.15;;;;;;;34.48;37.21;99072.47;5193177;27;20131;-83
2021/06/28 08:03:14;;;;;;;32.35;16.33;;;;;;;34.43;37.58;99071.69;5110084;27;20399;-84
2021/06/28 08:05:54;;;;;;;30.90;15.75;;;;;;;34.18;37.07;99079.00;5172000;27;20130;-81
2021/06/28 08:08:33;;;;;;;31.73;15.13;;;;;;;33.86;37.66;99073.84;5130662;27;20202;-81
2021/06/28 08:11:11;;;;;;;35.05;16.08;;;;;;;34.30;37.48;99067.56;5109657;27;20769;-81
2021/06/28 08:13:51;;;;;;;42.63;17.60;;;;;;;34.28;37.33;99069.81;5109953;27;20376;-83
2021/06/28 08:16:27;;;;;;;43.50;15.80;;;;;;;33.90;37.85;99076.88;5075685;27;1549758;-82
2021/06/28 08:19:06;;;;;;;34.33;16.10;;;;;;;33.50;38.35;99065.59;5110498;27;20391;-82
2021/06/28 08:21:43;;;;;;;35.25;15.88;;;;;;;33.58;38.54;99059.50;5110304;27;20392;-79
2021/06/28 08:24:21;;;;;;;34.70;15.40;;;;;;;33.89;37.87;99059.44;5110831;27;20388;-83
2021/06/28 08:27:00;;;;;;;35.03;15.23;;;;;;;34.46;37.30;99052.53;5172951;27;20130;-78
2021/06/28 08:29:39;;;;;;;36.60;14.75;;;;;;;34.61;36.89;99057.19;5069700;28;20395;-77
2021/06/28 08:32:18;;;;;;;31.40;14.40;;;;;;;35.05;36.35;99061.88;5109353;27;20932;-82
2021/06/28 08:34:59;;;;;;;34.47;16.23;;;;;;;35.31;35.52;99068.03;5187245;27;20383;-81
2021/06/28 08:37:39;;;;;;;37.20;16.27;;;;;;;35.17;35.62;99055.91;5191986;27;20289;-88
2021/06/28 08:40:17;;;;;;;30.20;14.07;;;;;;;35.51;35.43;99051.19;5108796;27;20387;-84
2021/06/28 08:42:56;;;;;;;29.02;14.50;;;;;;;35.96;35.00;99064.88;5110410;27;20391;-86
2021/06/28 08:45:37;;;;;;;29.23;14.25;;;;;;;36.38;33.98;99052.13;5172765;27;20533;-86
2021/06/28 08:48:15;;;;;;;44.05;13.75;;;;;;;36.78;33.00;99055.44;5131171;27;20398;-83
2021/06/28 08:50:54;;;;;;;27.33;13.73;;;;;;;36.68;32.61;99054.50;5131244;27;20371;-84
2021/06/28 08:53:52;;;;;;;33.80;13.27;;;;;;;36.84;32.65;99055.06;5108287;27;20938;-88
2021/06/28 08:56:29;;;;;;;30.75;11.05;;;;;;;36.69;33.03;99069.22;5108314;27;20379;-88
2021/06/28 08:59:08;;;;;;;24.08;10.27;;;;;;;36.37;33.94;99070.78;5170742;27;20546;-86
2021/06/28 09:01:46;;;;;;;20.38;9.63;;;;;;;36.03;34.58;99067.31;5108603;27;20924;-85
2021/06/28 09:04:24;;;;;;;16.40;9.40;;;;;;;35.72;35.00;99064.88;5108741;27;20392;-87
2021/06/28 09:07:21;;;;;;;13.25;9.07;;;;;;;34.91;35.79;99064.47;5111825;27;20388;-86
2021/06/28 09:09:58;;;;;;;15.32;9.70;;;;;;;35.11;35.96;99062.66;5111458;27;20392;-86
2021/06/28 09:12:48;;;;;;;28.38;9.95;;;;;;;35.34;35.62;99056.34;5152134;27;20127;-86
2021/06/28 09:15:36;;;;;;;16.80;9.60;;;;;;;35.24;35.41;99048.09;5194243;27;20370;-84
2021/06/28 09:18:17;;;;;;;15.95;8.80;;;;;;;35.15;35.54;99053.44;5131314;27;20310;-86
2021/06/28 09:21:07;;;;;;;18.70;8.85;;;;;;;35.02;35.34;99048.59;5173123;27;20141;-84
2021/06/28 09:23:47;;;;;;;21.88;8.85;;;;;;;35.03;35.53;99045.50;5110813;27;20384;-85
2021/06/28 09:26:34;;;;;;;21.88;9.43;;;;;;;34.82;36.12;99049.53;5131245;27;20131;-84
2021/06/28 09:29:12;;;;;;;18.17;9.07;;;;;;;35.03;36.23;99053.84;5152011;27;20127;-86
2021/06/28 09:31:51;;;;;;;17.92;9.32;;;;;;;35.35;35.87;99069.09;5110802;27;20388;-84
2021/06/28 09:34:30;;;;;;;17.05;8.35;;;;;;;35.57;36.03;99070.59;5173648;27;19943;-84
2021/06/28 09:37:13;;;;;;;11.48;7.57;;;;;;;35.91;35.39;99076.06;5195445;27;20219;-85
2021/06/28 09:39:53;;;;;;;14.95;7.63;;;;;;;36.33;34.97;99075.25;5112987;27;20368;-83
2021/06/28 09:42:31;;;;;;;10.90;6.18;;;;;;;36.10;33.98;99060.25;5092107;27;20710;-86
2021/06/28 09:45:19;;;;;;;8.80;6.63;;;;;;;36.12;34.89;99062.78;5110929;27;20380;-84
2021/06/28 09:47:58;;;;;;;12.13;6.72;;;;;;;36.58;34.46;99056.59;5070531;28;20417;-85
2021/06/28 09:50:39;;;;;;;12.38;6.97;;;;;;;37.25;33.76;99054.41;5172981;27;20403;-84
2021/06/28 09:53:34;;;;;;;14.43;7.40;;;;;;;37.06;33.58;99067.56;5151862;27;20133;-85
2021/06/28 09:56:37;;;;;;;11.73;7.53;;;;;;;36.72;34.00;99063.88;5133175;27;20403;-86
2021/06/28 09:59:35;;;;;;;24.38;7.68;;;;;;;37.12;34.10;99072.72;5090521;27;20533;-84
2021/06/28 10:10:51;;;;;;;14.00;7.30;;;;;;;36.35;34.17;99064.69;5193807;27;20443;-85
2021/06/28 10:14:23;;;;;;;14.35;7.88;;;;;;;37.08;33.19;99051.38;5193430;27;20393;-83
2021/06/28 10:17:45;;;;;;;10.02;7.43;;;;;;;37.06;33.57;99048.06;5132743;27;20536;-85
2021/06/28 10:20:41;;;;;;;8.40;6.72;;;;;;;37.95;32.39;99050.63;5193853;27;20410;-85
2021/06/28 10:27:03;;;;;;;11.93;6.70;;;;;;;39.45;30.63;99046.88;5149631;27;20425;-84
2021/06/28 10:29:54;;;;;;;10.18;6.57;;;;;;;40.07;29.68;99055.22;5091050;27;20750;-84
2021/06/28 10:33:08;;;;;;;10.30;6.63;;;;;;;40.70;28.95;99062.31;5030401;27;20132;-86
2021/06/28 10:36:05;;;;;;;11.50;6.35;;;;;;;40.78;27.33;99077.47;5090981;27;20380;-85
2021/06/28 10:39:03;;;;;;;9.23;6.57;;;;;;;39.54;29.05;99078.53;5090768;27;20419;-85
2021/06/28 10:41:55;;;;;;;10.48;6.57;;;;;;;38.43;30.17;99082.84;5109555;27;20370;-84
2021/06/28 10:44:48;;;;;;;10.38;6.63;;;;;;;38.15;30.72;99094.03;5090707;27;20522;-85
2021/06/28 10:47:28;;;;;;;10.52;7.10;;;;;;;38.16;31.08;99090.09;5070246;28;20391;-85
2021/06/28 10:50:06;;;;;;;11.52;6.32;;;;;;;37.73;30.73;99095.97;5110747;27;20747;-84
2021/06/28 10:52:57;;;;;;;9.73;6.63;;;;;;;36.69;32.54;99089.56;5090463;27;20388;-84
2021/06/28 10:55:42;;;;;;;8.75;6.32;;;;;;;36.17;33.37;99079.38;5090935;28;20102;-84
2021/06/28 10:58:31;;;;;;;10.90;6.70;;;;;;;37.48;32.23;99076.91;5090552;28;20102;-84
2021/06/28 11:01:17;;;;;;;8.65;6.68;;;;;;;39.02;29.85;99083.75;5075005;28;20055;-84
2021/06/28 11:04:09;;;;;;;17.10;7.20;;;;;;;38.96;30.15;99102.59;5061838;28;20054;-84
2021/06/28 11:07:02;;;;;;;15.82;6.40;;;;;;;38.89;30.60;99099.41;5075896;28;20097;-83
2021/06/28 11:09:52;;;;;;;23.60;7.20;;;;;;;37.98;31.52;99111.38;5089248;28;20612;-85
2021/06/28 11:12:36;;;;;;;12.02;6.57;;;;;;;37.45;32.20;99119.34;5075210;28;20560;-84
2021/06/28 11:15:21;;;;;;;20.85;7.32;;;;;;;36.88;32.90;99122.97;5089041;28;20418;-84
2021/06/28 11:18:05;;;;;;;19.23;6.75;;;;;;;36.41;34.12;99135.88;5090036;28;20207;-84
2021/06/28 11:20:52;;;;;;;10.27;7.07;;;;;;;35.72;35.20;99137.16;5089110;28;20117;-85
2021/06/28 11:23:36;;;;;;;21.05;7.53;;;;;;;35.42;35.46;99146.59;5088919;28;20050;-84
2021/06/28 11:26:02;;;;;;;27.45;7.38;;;;;;;34.95;36.06;99143.31;5055159;28;20048;-84
2021/06/28 11:29:11;;;;;;;16.48;6.70;;;;;;;34.38;37.23;99153.03;5132824;27;20719;-84
2021/06/28 11:32:22;;;;;;;19.88;6.53;;;;;;;34.17;37.43;99148.66;5152142;27;20443;-85
2021/06/28 11:34:48;;;;;;;10.98;6.32;;;;;;;33.53;37.93;99134.34;5063035;28;20517;-86
2021/06/28 11:37:14;;;;;;;12.48;6.80;;;;;;;33.27;38.49;99124.34;5130173;28;20039;-85
2021/06/28 11:39:56;;;;;;;13.38;6.80;;;;;;;32.94;39.06;99129.28;5095934;28;20092;-87
2021/06/28 11:43:02;;;;;;;13.77;6.35;;;;;;;32.49;40.09;99125.28;5090839;27;20397;-86
2021/06/28 11:45:56;;;;;;;12.55;6.70;;;;;;;32.45;40.36;99129.69;5090840;27;20411;-85
2021/06/28 11:49:03;;;;;;;8.82;6.57;;;;;;;32.43;40.54;99140.22;5090747;27;20410;-87
2021/06/28 11:51:56;;;;;;;13.18;6.97;;;;;;;32.32;40.83;99146.78;5108734;27;20504;-91
2021/06/28 11:55:05;;;;;;;21.85;7.68;;;;;;;32.27;41.17;99127.38;5151493;27;20146;-86
2021/06/28 11:58:03;;;;;;;23.73;6.75;;;;;;;32.20;41.63;99118.50;5071215;27;20397;-86
2021/06/28 12:01:06;;;;;;;17.60;6.93;;;;;;;32.24;41.75;99117.69;5130898;27;20454;-85
2021/06/28 12:04:00;;;;;;;10.25;6.60;;;;;;;32.14;41.98;99103.81;5142828;27;20397;-83
2021/06/28 12:06:53;;;;;;;18.67;6.72;;;;;;;31.96;42.24;99105.13;5098925;27;20462;-89
2021/06/28 12:09:58;;;;;;;11.40;6.75;;;;;;;32.04;42.07;99101.00;5140027;27;20852;-84
2021/06/28 12:12:56;;;;;;;12.35;6.75;;;;;;;32.19;41.36;99105.78;5151992;27;20473;-83
2021/06/28 12:15:56;;;;;;;17.23;7.32;;;;;;;31.94;41.08;99095.44;5091563;27;20406;-85
2021/06/28 12:19:06;;;;;;;13.60;6.70;;;;;;;32.13;41.39;99110.47;5172376;27;20352;-89
2021/06/28 12:22:17;;;;;;;8.48;6.65;;;;;;;32.25;41.03;99115.75;5120742;27;20389;-87